Time;durP1;ratioP1;P1;durP2;ratioP2;P2;SDS_P1;SDS_P2;PMS_P1;PMS_P2;Temp;Humidity;BMP_temperature;BMP_pressure;BME280_temperature;BME280_humidity;BME280_pressure;Samples;Min_cycle;Max_cycle;Signal;HPM_P1;HPM_P2
2022/12/14 00:01:36;;;;;;;;;;;18.00;59.20;;;;;;5074891;28;1279;-67
2022/12/14 00:04:01;;;;;;;;;;;17.90;59.20;;;;;;5079282;28;1905;-67
2022/12/14 00:06:27;;;;;;;;;;;18.00;59.20;;;;;;5079596;28;1006;-67
2022/12/14 00:08:54;;;;;;;;;;;17.90;59.20;;;;;;5080095;28;958;-67
2022/12/14 00:11:21;;;;;;;;;;;17.90;59.20;;;;;;5076932;28;1372;-68
2022/12/14 00:13:49;;;;;;;;;;;17.90;59.20;;;;;;5079618;28;1330;-67
2022/12/14 00:16:15;;;;;;;;;;;17.90;59.20;;;;;;5076950;28;1248;-67
2022/12/14 00:18:41;;;;;;;;;;;17.90;59.20;;;;;;5078677;28;919;-67
2022/12/14 00:21:07;;;;;;;;;;;17.90;59.20;;;;;;5077149;28;1321;-68
2022/12/14 00:23:32;;;;;;;;;;;17.90;59.20;;;;;;5079400;28;886;-67
2022/12/14 00:25:58;;;;;;;;;;;17.90;59.20;;;;;;5081839;28;1898;-66
2022/12/14 00:28:23;;;;;;;;;;;17.90;59.20;;;;;;5077157;28;938;-66
2022/12/14 00:30:54;;;;;;;;;;;17.90;59.20;;;;;;5078413;28;1270;-67
2022/12/14 00:33:20;;;;;;;;;;;17.90;59.30;;;;;;5080961;28;1017;-67
2022/12/14 00:35:45;;;;;;;;;;;17.90;59.30;;;;;;5077229;28;803;-67
2022/12/14 00:38:11;;;;;;;;;;;17.90;59.20;;;;;;5080319;28;899;-67
2022/12/14 00:40:36;;;;;;;;;;;17.90;59.30;;;;;;5078939;28;1267;-67
2022/12/14 00:43:02;;;;;;;;;;;17.90;59.30;;;;;;5075548;28;1294;-67
2022/12/14 00:45:28;;;;;;;;;;;17.90;59.30;;;;;;5076626;28;1902;-67
2022/12/14 00:47:55;;;;;;;;;;;17.90;59.30;;;;;;5077938;28;855;-67
2022/12/14 00:50:20;;;;;;;;;;;17.90;59.30;;;;;;5078212;28;1364;-67
2022/12/14 00:52:45;;;;;;;;;;;17.90;59.30;;;;;;5074543;28;1242;-67
2022/12/14 00:55:11;;;;;;;;;;;17.90;59.30;;;;;;5079120;28;1017;-68
2022/12/14 00:57:36;;;;;;;;;;;17.90;59.30;;;;;;5077602;28;1030;-67
2022/12/14 01:00:02;;;;;;;;;;;17.90;59.90;;;;;;5082394;28;1338;-67
2022/12/14 01:02:27;;;;;;;;;;;17.90;59.40;;;;;;5076313;28;866;-67
2022/12/14 01:04:53;;;;;;;;;;;17.90;59.40;;;;;;5076886;28;1905;-67
2022/12/14 01:07:18;;;;;;;;;;;17.90;59.40;;;;;;5077966;28;789;-67
2022/12/14 01:09:44;;;;;;;;;;;17.90;59.40;;;;;;5074502;28;1268;-67
2022/12/14 01:12:09;;;;;;;;;;;17.90;59.40;;;;;;5079010;28;944;-67
2022/12/14 01:14:35;;;;;;;;;;;17.90;59.40;;;;;;5075581;28;1362;-67
2022/12/14 01:17:00;;;;;;;;;;;17.80;59.40;;;;;;5078650;28;1341;-66
2022/12/14 01:19:26;;;;;;;;;;;17.80;59.40;;;;;;5076124;28;812;-67
2022/12/14 01:21:52;;;;;;;;;;;17.80;59.40;;;;;;5076474;28;1387;-67
2022/12/14 01:24:17;;;;;;;;;;;17.80;59.30;;;;;;5077744;28;1894;-67
2022/12/14 01:26:43;;;;;;;;;;;17.80;59.40;;;;;;5077431;28;867;-67
2022/12/14 01:29:10;;;;;;;;;;;17.80;59.40;;;;;;5074559;28;825;-67
2022/12/14 01:31:35;;;;;;;;;;;17.80;59.40;;;;;;5086775;28;1276;-67
2022/12/14 01:34:01;;;;;;;;;;;17.90;59.40;;;;;;5078533;28;1148;-67
2022/12/14 01:36:27;;;;;;;;;;;17.80;59.40;;;;;;5078612;28;853;-67
2022/12/14 01:38:54;;;;;;;;;;;17.80;59.30;;;;;;5079381;28;795;-67
2022/12/14 01:41:23;;;;;;;;;;;17.90;59.40;;;;;;5076195;28;1271;-67
2022/12/14 01:43:53;;;;;;;;;;;17.80;59.30;;;;;;5075446;28;908;-67
2022/12/14 01:46:24;;;;;;;;;;;17.80;59.30;;;;;;5078188;28;1898;-67
2022/12/14 01:48:50;;;;;;;;;;;17.80;59.30;;;;;;5079789;28;904;-67
2022/12/14 01:51:15;;;;;;;;;;;17.80;59.30;;;;;;5075006;28;1305;-67
2022/12/14 01:53:41;;;;;;;;;;;17.80;59.20;;;;;;5078406;28;994;-67
2022/12/14 01:56:06;;;;;;;;;;;17.90;59.30;;;;;;5078483;28;863;-67
2022/12/14 01:58:32;;;;;;;;;;;17.90;59.20;;;;;;5078844;28;804;-67
2022/12/14 02:00:58;;;;;;;;;;;17.90;59.20;;;;;;5076257;28;1232;-67
2022/12/14 02:03:24;;;;;;;;;;;17.90;59.20;;;;;;5076362;28;959;-67
2022/12/14 02:05:51;;;;;;;;;;;17.90;59.20;;;;;;5077826;28;1974;-67
2022/12/14 02:08:16;;;;;;;;;;;17.90;59.20;;;;;;5078042;28;950;-67
2022/12/14 02:10:42;;;;;;;;;;;17.90;59.10;;;;;;5077224;28;1725;-67
2022/12/14 02:13:10;;;;;;;;;;;17.90;59.10;;;;;;5088889;28;1306;-67
2022/12/14 02:15:35;;;;;;;;;;;17.90;59.10;;;;;;5077696;28;1293;-67
2022/12/14 02:18:01;;;;;;;;;;;17.90;59.10;;;;;;5079649;28;1261;-67
2022/12/14 02:20:27;;;;;;;;;;;17.90;59.10;;;;;;5079769;28;1307;-67
2022/12/14 02:22:58;;;;;;;;;;;17.90;59.10;;;;;;5080290;28;918;-67
2022/12/14 02:25:46;;;;;;;;;;;17.90;59.10;;;;;;5081407;28;1953;-67
2022/12/14 02:28:21;;;;;;;;;;;17.90;59.10;;;;;;5080566;28;824;-67
2022/12/14 02:30:49;;;;;;;;;;;17.90;59.10;;;;;;5082205;28;1542;-67
2022/12/14 02:33:17;;;;;;;;;;;17.90;59.10;;;;;;5077701;28;807;-67
2022/12/14 02:36:01;;;;;;;;;;;17.90;59.10;;;;;;5082627;28;815;-67
2022/12/14 02:38:42;;;;;;;;;;;17.90;59.10;;;;;;5089190;28;1243;-67
2022/12/14 02:41:17;;;;;;;;;;;17.90;59.10;;;;;;5079913;28;1361;-66
2022/12/14 02:43:42;;;;;;;;;;;17.90;59.10;;;;;;5077992;28;848;-66
2022/12/14 02:46:19;;;;;;;;;;;17.90;59.10;;;;;;5079448;28;1878;-67
2022/12/14 02:48:47;;;;;;;;;;;17.90;59.20;;;;;;5088687;28;887;-67
2022/12/14 02:51:25;;;;;;;;;;;17.90;59.20;;;;;;5080172;28;1287;-66
2022/12/14 02:53:55;;;;;;;;;;;17.90;59.20;;;;;;5080280;28;875;-67
2022/12/14 02:56:22;;;;;;;;;;;17.90;59.20;;;;;;5081125;28;880;-67
2022/12/14 02:58:49;;;;;;;;;;;17.90;59.20;;;;;;5080027;28;856;-67
2022/12/14 03:01:15;;;;;;;;;;;17.80;59.10;;;;;;5080894;28;1308;-67
2022/12/14 03:03:41;;;;;;;;;;;17.80;59.10;;;;;;5077531;28;835;-66
2022/12/14 03:06:13;;;;;;;;;;;17.90;59.70;;;;;;5077417;28;1906;-67
2022/12/14 03:08:39;;;;;;;;;;;17.90;59.20;;;;;;5078651;28;917;-67
2022/12/14 03:11:05;;;;;;;;;;;17.90;59.20;;;;;;5081143;28;1501;-67
2022/12/14 03:13:34;;;;;;;;;;;17.80;59.10;;;;;;5064444;28;1263;-67
2022/12/14 03:16:02;;;;;;;;;;;17.80;59.10;;;;;;5079133;28;1246;-66
2022/12/14 03:18:28;;;;;;;;;;;17.90;59.10;;;;;;5076824;28;965;-66
2022/12/14 03:20:54;;;;;;;;;;;17.90;59.20;;;;;;5080370;28;1285;-67
2022/12/14 03:23:27;;;;;;;;;;;17.90;59.10;;;;;;5079651;28;910;-67
2022/12/14 03:25:57;;;;;;;;;;;17.90;59.10;;;;;;5078799;28;1960;-67
2022/12/14 03:28:28;;;;;;;;;;;17.90;59.10;;;;;;5081823;28;817;-66
2022/12/14 03:31:06;;;;;;;;;;;17.90;59.10;;;;;;5079265;28;1362;-67
2022/12/14 03:33:32;;;;;;;;;;;17.90;59.10;;;;;;5078376;28;843;-67
2022/12/14 03:36:06;;;;;;;;;;;17.90;59.10;;;;;;5079351;28;867;-68
2022/12/14 03:38:41;;;;;;;;;;;17.90;59.10;;;;;;5078099;28;1251;-68
2022/12/14 03:41:11;;;;;;;;;;;17.90;59.10;;;;;;5079725;28;1383;-68
2022/12/14 03:43:38;;;;;;;;;;;17.90;59.10;;;;;;5079762;28;1547;-68
2022/12/14 03:46:10;;;;;;;;;;;17.90;59.10;;;;;;5080338;28;1953;-67
2022/12/14 03:48:40;;;;;;;;;;;17.90;59.10;;;;;;5076855;28;1386;-67
2022/12/14 03:51:05;;;;;;;;;;;17.90;59.10;;;;;;5081450;28;1417;-68
2022/12/14 03:53:31;;;;;;;;;;;17.90;59.00;;;;;;5077108;28;1599;-67
2022/12/14 03:55:59;;;;;;;;;;;17.90;59.10;;;;;;5077968;28;1342;-67
2022/12/14 03:58:43;;;;;;;;;;;17.90;59.10;;;;;;5079901;28;1418;-67
2022/12/14 04:01:09;;;;;;;;;;;17.90;59.10;;;;;;5078467;28;1524;-66
2022/12/14 04:03:34;;;;;;;;;;;17.90;59.10;;;;;;5083862;28;1412;-66
2022/12/14 04:06:18;;;;;;;;;;;17.90;59.10;;;;;;5081114;28;1902;-66
2022/12/14 04:08:47;;;;;;;;;;;17.90;59.00;;;;;;5077647;28;978;-67
2022/12/14 04:19:58;;;;;;;;;;;17.80;59.00;;;;;;5078694;28;1485;-66
2022/12/14 04:22:24;;;;;;;;;;;17.80;59.10;;;;;;5084457;28;1429;-67
2022/12/14 04:27:56;;;;;;;;;;;17.80;59.00;;;;;;5076605;28;818;-66
2022/12/14 04:30:22;;;;;;;;;;;17.80;59.00;;;;;;5078222;28;1357;-66
2022/12/14 04:32:48;;;;;;;;;;;17.80;59.00;;;;;;5076930;28;954;-66
2022/12/14 04:35:22;;;;;;;;;;;17.80;59.00;;;;;;5078441;28;895;-66
2022/12/14 04:37:48;;;;;;;;;;;17.80;59.00;;;;;;5079448;28;915;-66
2022/12/14 04:40:15;;;;;;;;;;;17.90;59.10;;;;;;5082027;28;1368;-66
2022/12/14 04:42:47;;;;;;;;;;;17.90;59.00;;;;;;5077153;28;1435;-66
2022/12/14 04:45:23;;;;;;;;;;;17.90;59.00;;;;;;5072636;28;1957;-66
2022/12/14 04:47:56;;;;;;;;;;;17.90;59.00;;;;;;5086739;28;879;-66
2022/12/14 04:50:25;;;;;;;;;;;17.90;59.00;;;;;;5078036;28;1270;-66
2022/12/14 04:52:52;;;;;;;;;;;17.90;59.00;;;;;;5078809;28;1262;-66
2022/12/14 04:55:31;;;;;;;;;;;17.90;59.00;;;;;;5080134;28;1097;-66
2022/12/14 04:58:11;;;;;;;;;;;17.90;59.00;;;;;;5077209;28;828;-66
2022/12/14 05:00:39;;;;;;;;;;;17.90;59.00;;;;;;5085803;28;1708;-66
2022/12/14 05:03:24;;;;;;;;;;;17.90;58.90;;;;;;5075485;28;1176;-67
2022/12/14 05:05:52;;;;;;;;;;;17.90;59.00;;;;;;5076624;28;1965;-66
2022/12/14 05:08:20;;;;;;;;;;;17.90;58.90;;;;;;5073873;28;863;-66
2022/12/14 05:10:48;;;;;;;;;;;17.90;58.90;;;;;;5075302;28;1359;-66
2022/12/14 05:13:35;;;;;;;;;;;17.90;58.90;;;;;;5075453;28;1435;-66
2022/12/14 05:16:00;;;;;;;;;;;17.90;58.90;;;;;;5078555;28;1010;-66
2022/12/14 05:18:26;;;;;;;;;;;17.90;58.90;;;;;;5077784;28;852;-66
2022/12/14 05:20:51;;;;;;;;;;;17.90;58.80;;;;;;5079648;28;1288;-66
2022/12/14 05:23:17;;;;;;;;;;;17.90;58.80;;;;;;5080379;28;862;-66
2022/12/14 05:25:42;;;;;;;;;;;18.00;58.80;;;;;;5071878;28;1898;-68
2022/12/14 05:28:10;;;;;;;;;;;18.00;58.70;;;;;;5079686;28;1888;-68
2022/12/14 05:30:36;;;;;;;;;;;18.00;58.60;;;;;;5078864;28;1391;-68
2022/12/14 05:33:01;;;;;;;;;;;18.00;58.60;;;;;;5076936;28;895;-68
2022/12/14 05:35:27;;;;;;;;;;;18.00;58.50;;;;;;5076704;28;804;-70
2022/12/14 05:37:52;;;;;;;;;;;18.00;58.50;;;;;;5076778;28;907;-70
2022/12/14 05:40:18;;;;;;;;;;;18.10;58.50;;;;;;5078486;28;1308;-69
2022/12/14 05:42:43;;;;;;;;;;;18.10;58.50;;;;;;5076223;28;794;-68
2022/12/14 05:45:12;;;;;;;;;;;18.10;58.40;;;;;;5078369;28;1906;-70
2022/12/14 05:47:37;;;;;;;;;;;18.10;58.90;;;;;;5080435;28;879;-68
2022/12/14 05:50:03;;;;;;;;;;;18.10;58.30;;;;;;5079785;28;1355;-68
2022/12/14 05:52:28;;;;;;;;;;;18.10;58.30;;;;;;5078534;28;1065;-67
2022/12/14 05:54:54;;;;;;;;;;;18.10;58.30;;;;;;5082566;28;834;-68
2022/12/14 05:57:19;;;;;;;;;;;18.10;58.20;;;;;;5082631;28;871;-68
2022/12/14 05:59:45;;;;;;;;;;;18.10;58.20;;;;;;5082049;28;1254;-68
2022/12/14 06:02:10;;;;;;;;;;;18.20;58.20;;;;;;5080237;28;809;-68
2022/12/14 06:04:36;;;;;;;;;;;18.20;58.20;;;;;;5084852;28;1898;-68
2022/12/14 06:07:01;;;;;;;;;;;18.20;58.20;;;;;;5082230;28;1064;-69
2022/12/14 06:09:27;;;;;;;;;;;18.20;58.20;;;;;;5081806;28;1021;-68
2022/12/14 06:11:52;;;;;;;;;;;18.20;58.20;;;;;;5080911;28;1277;-69
2022/12/14 06:14:18;;;;;;;;;;;18.20;58.20;;;;;;5083736;28;1270;-69
2022/12/14 06:16:43;;;;;;;;;;;18.20;58.10;;;;;;5087771;28;1273;-68
2022/12/14 06:19:09;;;;;;;;;;;18.20;58.20;;;;;;5080813;28;998;-69
2022/12/14 06:21:35;;;;;;;;;;;18.20;58.10;;;;;;5080637;28;1251;-70
2022/12/14 06:24:01;;;;;;;;;;;18.20;58.10;;;;;;5078466;28;859;-67
2022/12/14 06:26:26;;;;;;;;;;;18.20;58.10;;;;;;5079176;28;1953;-68
2022/12/14 06:28:52;;;;;;;;;;;18.10;58.10;;;;;;5079876;28;1426;-69
2022/12/14 06:31:19;;;;;;;;;;;18.20;58.10;;;;;;5080946;28;1266;-69
2022/12/14 06:33:45;;;;;;;;;;;18.10;58.10;;;;;;5077427;28;878;-69
2022/12/14 06:36:17;;;;;;;;;;;18.10;58.10;;;;;;5051207;28;5218;-69
2022/12/14 06:38:43;;;;;;;;;;;18.20;58.20;;;;;;5039747;28;4510;-68
2022/12/14 06:41:08;;;;;;;;;;;18.10;58.10;;;;;;5041112;28;1302;-70
2022/12/14 06:43:34;;;;;;;;;;;18.10;58.10;;;;;;5043134;28;975;-69
2022/12/14 06:45:59;;;;;;;;;;;18.10;58.20;;;;;;5042069;28;2011;-69
2022/12/14 06:48:25;;;;;;;;;;;18.10;58.20;;;;;;5043391;28;851;-69
2022/12/14 06:50:50;;;;;;;;;;;18.10;58.20;;;;;;5043687;28;1349;-69
2022/12/14 06:53:16;;;;;;;;;;;18.10;58.20;;;;;;5044570;28;892;-69
2022/12/14 06:55:41;;;;;;;;;;;18.10;58.20;;;;;;5042562;28;860;-69
2022/12/14 06:58:09;;;;;;;;;;;18.10;58.30;;;;;;5041650;28;864;-67
2022/12/14 07:00:35;;;;;;;;;;;18.10;58.30;;;;;;5044043;28;1223;-66
2022/12/14 07:03:00;;;;;;;;;;;18.10;58.30;;;;;;5041483;28;860;-69
2022/12/14 07:05:26;;;;;;;;;;;18.10;58.30;;;;;;5041238;28;1979;-70
2022/12/14 07:07:51;;;;;;;;;;;18.10;58.30;;;;;;5042657;28;805;-69
2022/12/14 07:10:17;;;;;;;;;;;18.10;58.40;;;;;;5043291;28;1268;-69
2022/12/14 07:12:42;;;;;;;;;;;18.10;58.40;;;;;;5043196;28;934;-69
2022/12/14 07:15:08;;;;;;;;;;;18.00;58.40;;;;;;5044042;28;1325;-69
2022/12/14 07:17:34;;;;;;;;;;;18.00;58.40;;;;;;5048958;28;1363;-70
2022/12/14 07:19:59;;;;;;;;;;;18.00;59.00;;;;;;5039056;28;1370;-70
2022/12/14 07:22:25;;;;;;;;;;;18.00;58.50;;;;;;5042069;28;838;-69
2022/12/14 07:24:50;;;;;;;;;;;18.00;58.50;;;;;;5040830;28;1909;-69
2022/12/14 07:27:17;;;;;;;;;;;18.00;58.50;;;;;;5041278;28;1709;-69
2022/12/14 07:29:43;;;;;;;;;;;18.00;58.50;;;;;;5045385;28;835;-69
2022/12/14 07:32:09;;;;;;;;;;;18.00;58.50;;;;;;5045593;28;1178;-69
2022/12/14 07:34:34;;;;;;;;;;;18.00;58.60;;;;;;5037158;28;978;-69
2022/12/14 07:37:00;;;;;;;;;;;18.00;58.60;;;;;;5040275;28;860;-68
2022/12/14 07:39:25;;;;;;;;;;;18.00;58.60;;;;;;5040630;28;881;-70
2022/12/14 07:41:53;;;;;;;;;;;17.90;58.60;;;;;;5041332;28;1248;-70
2022/12/14 07:44:18;;;;;;;;;;;17.90;58.60;;;;;;5039827;28;1956;-70
2022/12/14 07:46:44;;;;;;;;;;;17.90;58.60;;;;;;5039509;28;1061;-70
2022/12/14 07:49:10;;;;;;;;;;;17.90;58.60;;;;;;5042287;28;1614;-70
2022/12/14 07:51:36;;;;;;;;;;;17.90;58.70;;;;;;5039712;28;1359;-68
2022/12/14 07:54:02;;;;;;;;;;;17.90;58.70;;;;;;5042532;28;821;-69
2022/12/14 07:56:29;;;;;;;;;;;17.90;58.70;;;;;;5044262;28;1773;-69
2022/12/14 07:58:55;;;;;;;;;;;17.90;58.70;;;;;;5047980;28;879;-68
2022/12/14 08:01:21;;;;;;;;;;;17.90;58.80;;;;;;5044576;28;1211;-69
2022/12/14 08:03:47;;;;;;;;;;;17.90;58.80;;;;;;5039618;28;883;-70
2022/12/14 08:06:13;;;;;;;;;;;17.90;58.80;;;;;;5036027;28;1910;-71
2022/12/14 08:08:39;;;;;;;;;;;17.90;58.70;;;;;;5043426;28;825;-71
2022/12/14 08:11:04;;;;;;;;;;;17.90;58.70;;;;;;5037639;28;1414;-71
2022/12/14 08:13:30;;;;;;;;;;;17.90;58.70;;;;;;5040484;28;1100;-71
2022/12/14 08:15:55;;;;;;;;;;;17.90;58.70;;;;;;5039069;28;1405;-71
2022/12/14 08:18:21;;;;;;;;;;;17.90;58.60;;;;;;5040493;28;877;-71
2022/12/14 08:20:50;;;;;;;;;;;17.90;58.60;;;;;;5040731;28;1367;-71
2022/12/14 08:23:16;;;;;;;;;;;18.00;58.60;;;;;;5046932;28;872;-71
2022/12/14 08:25:41;;;;;;;;;;;18.00;58.50;;;;;;5046780;28;1962;-70
2022/12/14 08:28:07;;;;;;;;;;;18.00;58.50;;;;;;5038539;28;1190;-70
2022/12/14 08:30:35;;;;;;;;;;;18.00;58.50;;;;;;5041374;28;1357;-70
2022/12/14 08:33:02;;;;;;;;;;;18.00;58.50;;;;;;5038461;28;918;-70
2022/12/14 08:35:27;;;;;;;;;;;18.00;58.40;;;;;;5041037;28;820;-69
2022/12/14 08:37:53;;;;;;;;;;;18.00;58.40;;;;;;5039702;28;876;-69
2022/12/14 08:40:18;;;;;;;;;;;18.00;58.40;;;;;;5038317;28;1278;-69
2022/12/14 08:42:44;;;;;;;;;;;18.00;58.30;;;;;;5041939;28;994;-69
2022/12/14 08:45:09;;;;;;;;;;;18.00;58.30;;;;;;5038225;28;1906;-69
2022/12/14 08:47:35;;;;;;;;;;;18.00;58.30;;;;;;5038054;28;878;-69
2022/12/14 08:50:00;;;;;;;;;;;18.00;58.30;;;;;;5044567;28;1241;-70
2022/12/14 08:52:26;;;;;;;;;;;18.00;58.30;;;;;;5040532;28;986;-70
2022/12/14 08:54:51;;;;;;;;;;;18.10;58.30;;;;;;5041831;28;874;-70
2022/12/14 08:57:16;;;;;;;;;;;18.10;58.30;;;;;;5038236;28;860;-70
2022/12/14 08:59:43;;;;;;;;;;;18.10;58.30;;;;;;5042665;28;812;-69
2022/12/14 09:02:09;;;;;;;;;;;18.10;58.20;;;;;;5042804;28;1351;-69
2022/12/14 09:04:34;;;;;;;;;;;18.10;58.20;;;;;;5041203;28;1906;-69
2022/12/14 09:07:00;;;;;;;;;;;18.10;58.20;;;;;;5038331;28;887;-69
2022/12/14 09:09:25;;;;;;;;;;;18.10;58.20;;;;;;5040617;28;725;-70
2022/12/14 09:11:51;;;;;;;;;;;18.10;58.10;;;;;;5039667;28;1303;-70
2022/12/14 09:14:16;;;;;;;;;;;18.10;58.10;;;;;;5040179;28;1427;-69
2022/12/14 09:16:42;;;;;;;;;;;18.10;58.10;;;;;;5041762;28;1257;-70
2022/12/14 09:19:07;;;;;;;;;;;18.10;58.00;;;;;;5039704;28;807;-69
2022/12/14 09:21:33;;;;;;;;;;;18.10;58.00;;;;;;5050398;28;1296;-69
2022/12/14 09:23:58;;;;;;;;;;;18.10;58.00;;;;;;5038652;28;813;-69
2022/12/14 09:26:24;;;;;;;;;;;18.20;58.00;;;;;;5050869;28;1955;-69
2022/12/14 09:28:51;;;;;;;;;;;18.10;58.00;;;;;;5045133;28;801;-69
2022/12/14 09:31:17;;;;;;;;;;;18.20;58.00;;;;;;5045870;28;1366;-69
2022/12/14 09:33:43;;;;;;;;;;;18.20;58.00;;;;;;5042371;28;857;-69
2022/12/14 09:36:12;;;;;;;;;;;18.10;57.90;;;;;;5045791;28;808;-69
2022/12/14 09:38:38;;;;;;;;;;;18.20;57.90;;;;;;5041676;28;833;-70
2022/12/14 09:41:14;;;;;;;;;;;18.20;57.90;;;;;;5044110;28;1517;-70
2022/12/14 09:43:40;;;;;;;;;;;18.20;57.90;;;;;;5043241;28;894;-70
2022/12/14 09:46:26;;;;;;;;;;;18.20;57.90;;;;;;5041620;28;1906;-70
2022/12/14 09:48:52;;;;;;;;;;;18.20;57.90;;;;;;5010054;28;1130;-69
2022/12/14 09:51:18;;;;;;;;;;;18.20;57.90;;;;;;5032643;28;1335;-69
2022/12/14 09:53:44;;;;;;;;;;;18.20;57.90;;;;;;5041334;28;836;-69
2022/12/14 09:56:11;;;;;;;;;;;18.20;57.90;;;;;;5031050;28;1295;-69
2022/12/14 09:58:37;;;;;;;;;;;18.20;57.90;;;;;;5042732;28;1077;-69
2022/12/14 10:01:22;;;;;;;;;;;18.20;57.90;;;;;;5047881;28;1348;-71
2022/12/14 10:03:51;;;;;;;;;;;18.20;57.90;;;;;;5043409;28;1058;-70
2022/12/14 10:06:35;;;;;;;;;;;18.20;57.90;;;;;;5042015;28;1977;-69
2022/12/14 10:09:19;;;;;;;;;;;18.20;57.90;;;;;;5044711;28;777;-70
2022/12/14 10:11:50;;;;;;;;;;;18.20;58.00;;;;;;5041065;28;1269;-70
2022/12/14 10:14:16;;;;;;;;;;;18.20;58.00;;;;;;5045353;28;1306;-70
2022/12/14 10:16:50;;;;;;;;;;;18.20;58.00;;;;;;5042675;28;1232;-70
2022/12/14 10:19:35;;;;;;;;;;;18.20;57.90;;;;;;5044313;28;837;-70
2022/12/14 10:22:11;;;;;;;;;;;18.20;58.00;;;;;;5044918;28;1378;-70
2022/12/14 10:24:43;;;;;;;;;;;18.20;58.00;;;;;;5030299;28;1962;-70
2022/12/14 10:27:10;;;;;;;;;;;18.20;58.00;;;;;;5037281;28;1095;-69
2022/12/14 10:29:46;;;;;;;;;;;18.20;57.90;;;;;;5041540;28;1360;-70
2022/12/14 10:32:11;;;;;;;;;;;18.20;57.90;;;;;;5042810;28;889;-69
2022/12/14 10:34:38;;;;;;;;;;;18.20;58.00;;;;;;5043298;28;1413;-69
2022/12/14 10:37:10;;;;;;;;;;;18.20;58.00;;;;;;5043001;28;863;-69
2022/12/14 10:39:42;;;;;;;;;;;18.20;57.90;;;;;;5033540;28;1501;-69
2022/12/14 10:42:08;;;;;;;;;;;18.20;58.00;;;;;;5025915;28;1273;-69
2022/12/14 10:44:53;;;;;;;;;;;18.20;57.90;;;;;;5044298;28;1953;-69
2022/12/14 10:47:20;;;;;;;;;;;18.20;57.90;;;;;;5040473;28;903;-69
2022/12/14 10:49:58;;;;;;;;;;;18.20;57.80;;;;;;5044917;28;1261;-69
2022/12/14 10:52:25;;;;;;;;;;;18.20;57.60;;;;;;5043452;28;889;-69
2022/12/14 10:54:54;;;;;;;;;;;18.20;57.50;;;;;;5043233;28;906;-70
2022/12/14 10:57:21;;;;;;;;;;;18.20;57.60;;;;;;5036957;28;1001;-69
2022/12/14 10:59:46;;;;;;;;;;;18.30;57.60;;;;;;5041308;28;1367;-69
2022/12/14 11:02:15;;;;;;;;;;;18.30;57.60;;;;;;5042281;28;948;-69
2022/12/14 11:04:44;;;;;;;;;;;18.30;57.60;;;;;;5043068;28;1987;-69
2022/12/14 11:07:10;;;;;;;;;;;18.30;57.60;;;;;;5041625;28;942;-69
2022/12/14 11:09:36;;;;;;;;;;;18.30;57.50;;;;;;5041209;28;945;-69
2022/12/14 11:12:06;;;;;;;;;;;18.30;57.40;;;;;;5027376;28;1327;-69
2022/12/14 11:14:32;;;;;;;;;;;18.30;57.40;;;;;;5044774;28;1515;-69
2022/12/14 11:16:57;;;;;;;;;;;18.30;57.40;;;;;;5047459;28;1336;-69
2022/12/14 11:19:23;;;;;;;;;;;18.30;57.40;;;;;;5043903;28;864;-69
2022/12/14 11:21:49;;;;;;;;;;;18.30;57.40;;;;;;5038928;28;1282;-69
2022/12/14 11:24:28;;;;;;;;;;;18.30;57.40;;;;;;5037238;28;837;-68
2022/12/14 11:26:53;;;;;;;;;;;18.30;57.30;;;;;;5042251;28;896;-68
2022/12/14 11:29:26;;;;;;;;;;;18.30;57.30;;;;;;5041650;28;950;-68
2022/12/14 11:31:51;;;;;;;;;;;18.30;57.30;;;;;;5041338;28;1257;-69
2022/12/14 11:34:29;;;;;;;;;;;18.30;57.30;;;;;;5042853;28;1197;-69
2022/12/14 11:36:54;;;;;;;;;;;18.30;57.30;;;;;;5048736;28;947;-69
2022/12/14 11:39:20;;;;;;;;;;;18.30;57.30;;;;;;5043629;28;945;-68
2022/12/14 11:42:00;;;;;;;;;;;18.30;57.30;;;;;;5042542;28;1365;-68
2022/12/14 11:44:26;;;;;;;;;;;18.30;57.30;;;;;;5040132;28;1956;-69
2022/12/14 11:46:57;;;;;;;;;;;18.30;57.30;;;;;;5040378;28;2023;-69
2022/12/14 11:49:38;;;;;;;;;;;18.30;57.30;;;;;;5042772;28;1913;-69
2022/12/14 11:52:03;;;;;;;;;;;18.30;57.30;;;;;;5042291;28;1330;-68
2022/12/14 11:54:29;;;;;;;;;;;18.30;57.30;;;;;;5041674;28;840;-69
2022/12/14 11:56:56;;;;;;;;;;;18.30;57.30;;;;;;5041325;28;1075;-68
2022/12/14 11:59:22;;;;;;;;;;;18.30;57.30;;;;;;5040980;28;1082;-68
2022/12/14 12:01:47;;;;;;;;;;;18.30;57.30;;;;;;5040183;28;1375;-69
2022/12/14 12:04:13;;;;;;;;;;;18.30;57.30;;;;;;5039988;28;943;-69
2022/12/14 12:06:39;;;;;;;;;;;18.30;57.30;;;;;;5047538;28;1914;-69
2022/12/14 12:09:09;;;;;;;;;;;18.30;57.20;;;;;;5043561;28;1198;-69
2022/12/14 12:11:35;;;;;;;;;;;18.30;57.30;;;;;;5040738;28;1315;-69
2022/12/14 12:14:02;;;;;;;;;;;18.30;57.30;;;;;;5038107;28;1338;-68
2022/12/14 12:16:28;;;;;;;;;;;18.30;57.30;;;;;;5037997;28;1059;-69
2022/12/14 12:18:59;;;;;;;;;;;18.40;57.40;;;;;;5045915;28;841;-69
2022/12/14 12:21:31;;;;;;;;;;;18.40;57.40;;;;;;5019723;28;1307;-69
2022/12/14 12:24:03;;;;;;;;;;;18.30;57.30;;;;;;5040232;28;837;-68
2022/12/14 12:26:30;;;;;;;;;;;18.30;57.30;;;;;;5040279;28;1961;-70
2022/12/14 12:29:01;;;;;;;;;;;18.30;57.40;;;;;;5040703;28;899;-70
2022/12/14 12:31:53;;;;;;;;;;;18.30;57.40;;;;;;5046811;28;1352;-70
2022/12/14 12:34:21;;;;;;;;;;;18.30;57.40;;;;;;5041351;28;1123;-70
2022/12/14 12:36:46;;;;;;;;;;;18.30;57.40;;;;;;5043121;28;820;-70
2022/12/14 12:39:15;;;;;;;;;;;18.30;57.40;;;;;;5041577;28;1383;-70
2022/12/14 12:41:43;;;;;;;;;;;18.30;57.40;;;;;;5042374;28;1347;-70
2022/12/14 12:44:16;;;;;;;;;;;18.30;57.40;;;;;;5038428;28;898;-71
2022/12/14 12:46:46;;;;;;;;;;;18.30;57.50;;;;;;5039238;28;1949;-70
2022/12/14 12:49:13;;;;;;;;;;;18.30;57.50;;;;;;5040934;28;852;-71
2022/12/14 12:51:46;;;;;;;;;;;18.30;57.50;;;;;;5038702;28;1363;-71
2022/12/14 12:54:13;;;;;;;;;;;18.30;57.50;;;;;;5043627;28;868;-70
2022/12/14 12:56:57;;;;;;;;;;;18.30;57.60;;;;;;5041346;28;1081;-70
2022/12/14 12:59:25;;;;;;;;;;;18.30;57.50;;;;;;5047130;28;934;-71
2022/12/14 13:01:51;;;;;;;;;;;18.30;57.50;;;;;;5041729;28;1296;-71
2022/12/14 13:04:30;;;;;;;;;;;18.30;57.50;;;;;;5044755;28;1064;-71
2022/12/14 13:07:02;;;;;;;;;;;18.30;57.50;;;;;;5039399;28;1430;-70
2022/12/14 13:09:33;;;;;;;;;;;18.30;57.50;;;;;;5038126;28;874;-70
2022/12/14 13:11:59;;;;;;;;;;;18.30;57.50;;;;;;5039788;28;1313;-71
2022/12/14 13:14:29;;;;;;;;;;;18.30;57.40;;;;;;5047124;28;1301;-70
2022/12/14 13:16:55;;;;;;;;;;;18.30;57.50;;;;;;5035352;28;1407;-70
2022/12/14 13:19:26;;;;;;;;;;;18.30;57.40;;;;;;5038284;28;848;-70
2022/12/14 13:21:51;;;;;;;;;;;18.40;57.40;;;;;;5039407;28;1261;-70
2022/12/14 13:24:18;;;;;;;;;;;18.30;57.40;;;;;;5034344;28;864;-70
2022/12/14 13:26:54;;;;;;;;;;;18.30;57.40;;;;;;5041088;28;1886;-70
2022/12/14 13:29:38;;;;;;;;;;;18.30;57.30;;;;;;5040450;28;899;-70
2022/12/14 13:32:22;;;;;;;;;;;18.40;57.40;;;;;;5041014;28;2124;-69
2022/12/14 13:34:53;;;;;;;;;;;18.30;57.30;;;;;;5038901;28;1387;-69
2022/12/14 13:37:29;;;;;;;;;;;18.30;57.30;;;;;;5038962;28;911;-69
2022/12/14 13:40:02;;;;;;;;;;;18.30;57.30;;;;;;5039368;28;1319;-69
2022/12/14 13:42:28;;;;;;;;;;;18.30;57.30;;;;;;5045777;28;895;-70
2022/12/14 13:44:55;;;;;;;;;;;18.40;57.30;;;;;;5042267;28;1961;-70
2022/12/14 13:47:27;;;;;;;;;;;18.30;57.30;;;;;;5023508;28;1318;-71
2022/12/14 13:49:53;;;;;;;;;;;18.30;57.30;;;;;;5042273;28;1265;-70
2022/12/14 13:52:30;;;;;;;;;;;18.40;57.30;;;;;;5042548;28;813;-70
2022/12/14 13:54:55;;;;;;;;;;;18.30;57.30;;;;;;5038641;28;867;-70
2022/12/14 13:57:22;;;;;;;;;;;18.30;57.20;;;;;;5039293;28;860;-70
2022/12/14 13:59:48;;;;;;;;;;;18.40;57.30;;;;;;5039674;28;1268;-70
2022/12/14 14:02:29;;;;;;;;;;;18.40;57.30;;;;;;5041026;28;799;-70
2022/12/14 14:05:13;;;;;;;;;;;18.40;57.30;;;;;;5040637;28;1959;-70
2022/12/14 14:07:57;;;;;;;;;;;18.30;57.20;;;;;;5041585;28;837;-70
2022/12/14 14:10:41;;;;;;;;;;;18.40;57.30;;;;;;5040879;28;1292;-70
2022/12/14 14:13:25;;;;;;;;;;;18.40;57.30;;;;;;5045909;28;1202;-69
2022/12/14 14:15:51;;;;;;;;;;;18.40;57.30;;;;;;5041829;28;1481;-72
2022/12/14 14:18:17;;;;;;;;;;;18.30;57.20;;;;;;5042942;28;1454;-70
2022/12/14 14:20:44;;;;;;;;;;;18.40;57.30;;;;;;5041264;28;1499;-68
2022/12/14 14:23:12;;;;;;;;;;;18.40;57.30;;;;;;5043297;28;1946;-68
2022/12/14 14:25:39;;;;;;;;;;;18.40;57.30;;;;;;5038962;28;1936;-67
2022/12/14 14:28:08;;;;;;;;;;;18.40;57.30;;;;;;5046308;28;1318;-67
2022/12/14 14:30:34;;;;;;;;;;;18.40;57.30;;;;;;5042456;28;1884;-68
2022/12/14 14:33:00;;;;;;;;;;;18.30;57.30;;;;;;5043222;28;2040;-68
2022/12/14 14:35:35;;;;;;;;;;;18.40;57.30;;;;;;5049291;28;1281;-67
2022/12/14 14:38:01;;;;;;;;;;;18.40;57.30;;;;;;5050503;28;1318;-67
2022/12/14 14:40:28;;;;;;;;;;;18.30;57.30;;;;;;5040805;28;2350;-68
2022/12/14 14:42:59;;;;;;;;;;;18.30;57.30;;;;;;5042227;28;1348;-69
2022/12/14 14:45:34;;;;;;;;;;;18.30;57.30;;;;;;5043929;28;1938;-69
2022/12/14 14:48:01;;;;;;;;;;;18.30;57.30;;;;;;5045539;28;725;-69
2022/12/14 14:50:36;;;;;;;;;;;18.30;57.30;;;;;;5041793;28;1358;-69
2022/12/14 14:53:11;;;;;;;;;;;18.30;57.30;;;;;;5041254;28;879;-69
2022/12/14 14:55:37;;;;;;;;;;;18.30;57.30;;;;;;5042258;28;958;-69